Check out our new BloomSky Weather System.

Active alerts


No alerts


Thunder radar  blitzortung!


Rain radar more information rain snow radar


Visit our other weather sites:

Template documentation
and downloads

And another site



Weather Underground History page Text

Daily Summary for May 14, 2017 Units:  Metric    English   Both
« Previous Day
Next Day »
Daily Weekly Monthly Yearly Custom
  High: Low: Average:
Temperature: 31.6 °C 17.2 °C 24.8 °C
Dew Point: 21 °C 16.4 °C 18.8 °C
Humidity: 96 % 45 % 72 %
Wind Speed: 12.9 km/h 0 km/h 3.4 km/h
Wind Gust: 20.9 km/h - -
Wind:- - SE
Pressure: 1014.8 hPa 1011.1 hPa -
Precipitation: 0 mm    
Historical Graphs
 
 
Tabular Data for May 14, 2017
Time Temperature Dew Point Pressure Wind Wind Speed Wind Gust Humidity Rainfall Rate (Hourly)
00:04 22.1 °C 18.1 °C 1012.8 hPa Calm   8 km/h 78 % 0 mm
00:09 21.9 °C 17.9 °C 1012.8 hPa Calm   8 km/h 78 % 0 mm
00:14 21.7 °C 17.9 °C 1012.8 hPa Calm   4.8 km/h 79 % 0 mm
00:19 21.5 °C 17.9 °C 1012.8 hPa Calm   3.2 km/h 80 % 0 mm
00:24 21.3 °C 17.7 °C 1012.8 hPa Calm   1.6 km/h 80 % 0 mm
00:29 21.2 °C 17.8 °C 1012.8 hPa Calm   1.6 km/h 81 % 0 mm
00:34 21.1 °C 17.9 °C 1012.8 hPa Calm   1.6 km/h 82 % 0 mm
00:39 20.9 °C 17.7 °C 1012.8 hPa Calm     82 % 0 mm
00:44 20.8 °C 17.6 °C 1012.8 hPa Calm   1.6 km/h 82 % 0 mm
00:49 20.6 °C 17.6 °C 1012.8 hPa Calm   1.6 km/h 83 % 0 mm
00:54 20.5 °C 17.7 °C 1012.8 hPa Calm   1.6 km/h 84 % 0 mm
00:59 20.5 °C 17.7 °C 1012.8 hPa Calm     84 % 0 mm
01:04 20.5 °C 17.9 °C 1012.8 hPa Calm     85 % 0 mm
01:09 20.5 °C 17.9 °C 1012.8 hPa Calm     85 % 0 mm
01:14 20.4 °C 17.8 °C 1012.8 hPa Calm   1.6 km/h 85 % 0 mm
01:19 20.3 °C 17.7 °C 1012.8 hPa Calm   1.6 km/h 85 % 0 mm
01:24 20.3 °C 17.9 °C 1012.8 hPa Calm   1.6 km/h 86 % 0 mm
01:29 20.3 °C 17.9 °C 1012.8 hPa Calm   1.6 km/h 86 % 0 mm
01:34 20.3 °C 17.9 °C 1012.8 hPa Calm   1.6 km/h 86 % 0 mm
01:39 20.2 °C 17.8 °C 1012.8 hPa Calm     86 % 0 mm
01:44 20 °C 17.6 °C 1012.8 hPa Calm     86 % 0 mm
01:49 20.1 °C 17.9 °C 1012.8 hPa Calm     87 % 0 mm
01:54 20.1 °C 17.9 °C 1012.8 hPa Calm     87 % 0 mm
01:59 19.9 °C 17.7 °C 1012.8 hPa Calm     87 % 0 mm
02:04 19.9 °C 17.7 °C 1012.8 hPa Calm     87 % 0 mm
02:09 19.9 °C 17.7 °C 1012.8 hPa Calm     87 % 0 mm
02:14 19.9 °C 17.7 °C 1012.8 hPa Calm     87 % 0 mm
02:20 19.8 °C 17.8 °C 1012.8 hPa Calm     88 % 0 mm
02:25 19.8 °C 17.8 °C 1012.4 hPa Calm     88 % 0 mm
02:30 19.7 °C 17.5 °C 1012.4 hPa Calm     87 % 0 mm
02:35 19.6 °C 17.6 °C 1012.4 hPa Calm     88 % 0 mm
02:40 19.6 °C 17.6 °C 1012.4 hPa Calm     88 % 0 mm
02:45 19.5 °C 17.6 °C 1012.4 hPa Calm     89 % 0 mm
02:50 19.6 °C 17.7 °C 1012.4 hPa Calm     89 % 0 mm
02:55 19.6 °C 17.7 °C 1012.4 hPa Calm     89 % 0 mm
03:00 19.6 °C 17.6 °C 1012.4 hPa Calm     88 % 0 mm
03:05 19.6 °C 17.6 °C 1012.4 hPa Calm     88 % 0 mm
03:10 19.6 °C 17.7 °C 1012.4 hPa Calm     89 % 0 mm
03:15 19.5 °C 17.6 °C 1012.4 hPa Calm     89 % 0 mm
03:20 19.4 °C 17.4 °C 1012.4 hPa Calm     88 % 0 mm
03:25 19.3 °C 17.4 °C 1012.4 hPa Calm     89 % 0 mm
03:30 19.2 °C 17.3 °C 1012.4 hPa Calm     89 % 0 mm
03:35 19.1 °C 17.2 °C 1012.4 hPa Calm     89 % 0 mm
03:40 18.9 °C 17 °C 1012.4 hPa Calm     89 % 0 mm
03:45 18.8 °C 17.1 °C 1012.4 hPa Calm     90 % 0 mm
03:50 18.8 °C 17.1 °C 1012.4 hPa Calm     90 % 0 mm
03:55 18.8 °C 17.1 °C 1012.4 hPa Calm     90 % 0 mm
04:00 18.8 °C 17.3 °C 1012.4 hPa Calm     91 % 0 mm
04:05 18.7 °C 17.2 °C 1012.4 hPa Calm     91 % 0 mm
04:10 18.7 °C 17.2 °C 1012.4 hPa Calm     91 % 0 mm
04:15 18.5 °C 17 °C 1012.4 hPa Calm     91 % 0 mm
04:20 18.5 °C 17 °C 1012.4 hPa Calm     91 % 0 mm
04:25 18.4 °C 16.9 °C 1012.8 hPa Calm     91 % 0 mm
04:30 18.3 °C 17 °C 1012.8 hPa Calm     92 % 0 mm
04:35 18.2 °C 16.9 °C 1012.8 hPa Calm     92 % 0 mm
04:40 18.1 °C 16.8 °C 1012.8 hPa Calm     92 % 0 mm
04:45 18.1 °C 16.8 °C 1012.8 hPa Calm     92 % 0 mm
04:50 18.1 °C 16.9 °C 1012.8 hPa Calm     93 % 0 mm
04:55 18.1 °C 16.9 °C 1012.8 hPa Calm     93 % 0 mm
05:00 18.1 °C 16.9 °C 1012.8 hPa Calm     93 % 0 mm
05:05 17.9 °C 16.8 °C 1012.8 hPa Calm     93 % 0 mm
05:06 17.9 °C 16.8 °C 1012.8 hPa Calm     93 % 0 mm
05:11 17.9 °C 16.8 °C 1012.8 hPa Calm     93 % 0 mm
05:16 17.8 °C 16.7 °C 1012.8 hPa Calm     93 % 0 mm
05:21 17.7 °C 16.6 °C 1012.8 hPa Calm     93 % 0 mm
05:26 17.8 °C 16.7 °C 1012.8 hPa Calm     93 % 0 mm
05:31 17.8 °C 16.7 °C 1013.1 hPa Calm     93 % 0 mm
05:36 17.8 °C 16.7 °C 1013.1 hPa Calm     93 % 0 mm
05:41 17.7 °C 16.7 °C 1013.1 hPa Calm     94 % 0 mm
05:47 17.6 °C 16.6 °C 1013.1 hPa Calm     94 % 0 mm
05:51 17.5 °C 16.5 °C 1013.4 hPa Calm     94 % 0 mm
05:56 17.4 °C 16.4 °C 1013.4 hPa Calm     94 % 0 mm
06:01 17.4 °C 16.4 °C 1013.4 hPa Calm     94 % 0 mm
06:06 17.4 °C 16.4 °C 1013.1 hPa Calm     94 % 0 mm
06:11 17.4 °C 16.4 °C 1013.1 hPa Calm     94 % 0 mm
06:16 17.4 °C 16.6 °C 1013.1 hPa Calm     95 % 0 mm
06:21 17.4 °C 16.6 °C 1013.1 hPa Calm     95 % 0 mm
06:26 17.3 °C 16.5 °C 1013.1 hPa Calm     95 % 0 mm
06:31 17.3 °C 16.5 °C 1013.1 hPa Calm     95 % 0 mm
06:36 17.3 °C 16.5 °C 1013.1 hPa Calm   9.7 km/h 95 % 0 mm
06:41 17.2 °C 16.4 °C 1013.4 hPa Calm   9.7 km/h 95 % 0 mm
06:46 17.3 °C 16.5 °C 1013.4 hPa Calm   9.7 km/h 95 % 0 mm
06:51 17.4 °C 16.6 °C 1013.4 hPa Calm     95 % 0 mm
06:56 17.4 °C 16.6 °C 1013.4 hPa Calm     95 % 0 mm
07:01 17.5 °C 16.7 °C 1013.4 hPa Calm     95 % 0 mm
07:06 17.7 °C 17.1 °C 1013.4 hPa Calm     96 % 0 mm
07:11 17.9 °C 17.3 °C 1013.4 hPa Calm     96 % 0 mm
07:16 18.2 °C 17.6 °C 1013.4 hPa Calm   1.6 km/h 96 % 0 mm
07:21 18.8 °C 18.1 °C 1013.4 hPa Calm   1.6 km/h 96 % 0 mm
07:26 19.2 °C 18.5 °C 1013.4 hPa Calm   3.2 km/h 96 % 0 mm
07:31 19.6 °C 18.9 °C 1013.4 hPa Calm   3.2 km/h 96 % 0 mm
07:36 20.1 °C 19.4 °C 1013.4 hPa Calm   3.2 km/h 96 % 0 mm
07:41 20.4 °C 19.6 °C 1013.8 hPa Calm   3.2 km/h 95 % 0 mm
07:46 20.5 °C 19.3 °C 1013.8 hPa Calm   4.8 km/h 93 % 0 mm
07:51 20.8 °C 19.6 °C 1013.8 hPa Calm   4.8 km/h 93 % 0 mm
07:56 21.3 °C 19.9 °C 1013.8 hPa Calm   4.8 km/h 92 % 0 mm
08:01 21.8 °C 20.3 °C 1013.8 hPa Calm   4.8 km/h 91 % 0 mm
08:06 22.2 °C 20.3 °C 1013.8 hPa Calm   1.6 km/h 89 % 0 mm
08:11 22.6 °C 20.3 °C 1013.8 hPa SSE 1.6 km/h 1.6 km/h 87 % 0 mm
08:16 22.8 °C 20.1 °C 1013.8 hPa Calm   3.2 km/h 85 % 0 mm
08:21 23.2 °C 20.3 °C 1014.1 hPa SSE 3.2 km/h 3.2 km/h 84 % 0 mm
08:26 23.6 °C 20.3 °C 1014.1 hPa Calm   3.2 km/h 82 % 0 mm
08:27 23.6 °C 20.5 °C 1014.1 hPa Calm   3.2 km/h 83 % 0 mm
08:32 24.1 °C 20.6 °C 1014.1 hPa Calm   3.2 km/h 81 % 0 mm
08:37 24.5 °C 20.8 °C 1014.1 hPa Calm   3.2 km/h 80 % 0 mm
08:42 24.8 °C 20.9 °C 1014.1 hPa SE 1.6 km/h 3.2 km/h 79 % 0 mm
08:47 25.1 °C 21 °C 1014.1 hPa ENE 1.6 km/h 3.2 km/h 78 % 0 mm
08:52 25.1 °C 20.6 °C 1014.4 hPa SE 1.6 km/h 4.8 km/h 76 % 0 mm
08:57 25.3 °C 21 °C 1014.4 hPa SW 3.2 km/h 4.8 km/h 77 % 0 mm
09:02 25.2 °C 20.7 °C 1014.4 hPa ESE 3.2 km/h 4.8 km/h 76 % 0 mm
09:07 25.1 °C 20.8 °C 1014.4 hPa East 4.8 km/h 9.7 km/h 77 % 0 mm
09:12 25.2 °C 20.9 °C 1014.4 hPa South 1.6 km/h 9.7 km/h 77 % 0 mm
09:17 25.3 °C 20.8 °C 1014.4 hPa SSE 4.8 km/h 9.7 km/h 76 % 0 mm
09:22 25.2 °C 20.7 °C 1014.4 hPa SSE 4.8 km/h 12.9 km/h 76 % 0 mm
09:26 25.3 °C 20.5 °C 1014.4 hPa SSW 4.8 km/h 12.9 km/h 75 % 0 mm
09:31 25.5 °C 20.7 °C 1014.4 hPa SE 4.8 km/h 12.9 km/h 75 % 0 mm
09:36 25.6 °C 20.4 °C 1014.4 hPa SE 4.8 km/h 12.9 km/h 73 % 0 mm
09:41 25.6 °C 20.6 °C 1014.4 hPa SE 3.2 km/h 9.7 km/h 74 % 0 mm
09:46 25.7 °C 20.5 °C 1014.4 hPa SE 6.4 km/h 9.7 km/h 73 % 0 mm
09:51 25.9 °C 20.5 °C 1014.4 hPa ESE 11.3 km/h 14.5 km/h 72 % 0 mm
09:56 26.1 °C 20.2 °C 1014.8 hPa ESE 8 km/h 14.5 km/h 70 % 0 mm
10:01 26.1 °C 20.4 °C 1014.8 hPa East 9.7 km/h 14.5 km/h 71 % 0 mm
10:06 25.9 °C 19.8 °C 1014.8 hPa SE 6.4 km/h 12.9 km/h 69 % 0 mm
10:11 25.7 °C 20 °C 1014.8 hPa SE 4.8 km/h 12.9 km/h 71 % 0 mm
10:16 25.7 °C 20.3 °C 1014.8 hPa SE 6.4 km/h 12.9 km/h 72 % 0 mm
10:21 25.8 °C 20.1 °C 1014.8 hPa SE 8 km/h 12.9 km/h 71 % 0 mm
10:26 26.2 °C 20.3 °C 1014.8 hPa SE 9.7 km/h 12.9 km/h 70 % 0 mm
10:31 26.3 °C 20.2 °C 1014.4 hPa ESE 6.4 km/h 12.9 km/h 69 % 0 mm
10:36 26.7 °C 20.3 °C 1014.4 hPa ENE 3.2 km/h 12.9 km/h 68 % 0 mm
10:41 27 °C 20.3 °C 1014.4 hPa SE 8 km/h 12.9 km/h 67 % 0 mm
10:46 26.8 °C 20.4 °C 1014.4 hPa ESE 8 km/h 11.3 km/h 68 % 0 mm
10:51 26.8 °C 20.2 °C 1014.4 hPa ESE 6.4 km/h 12.9 km/h 67 % 0 mm
10:56 27.1 °C 20.2 °C 1014.4 hPa ESE 3.2 km/h 12.9 km/h 66 % 0 mm
11:01 27.1 °C 19.7 °C 1014.4 hPa East 3.2 km/h 12.9 km/h 64 % 0 mm
11:06 27.1 °C 20.2 °C 1014.4 hPa NE 4.8 km/h 11.3 km/h 66 % 0 mm
11:11 27.5 °C 19.8 °C 1014.4 hPa Calm   11.3 km/h 63 % 0 mm
11:16 27.6 °C 19.7 °C 1014.4 hPa ESE 6.4 km/h 9.7 km/h 62 % 0 mm
11:21 27.3 °C 19.6 °C 1014.4 hPa SSE 8 km/h 12.9 km/h 63 % 0 mm
11:26 27.3 °C 19.9 °C 1014.4 hPa SE 8 km/h 12.9 km/h 64 % 0 mm
11:31 27.5 °C 19.6 °C 1014.4 hPa Calm   12.9 km/h 62 % 0 mm
11:36 27.4 °C 19.7 °C 1014.4 hPa SE 6.4 km/h 11.3 km/h 63 % 0 mm
11:41 27.3 °C 19.9 °C 1014.4 hPa ENE 6.4 km/h 11.3 km/h 64 % 0 mm
11:46 27.3 °C 18.9 °C 1014.4 hPa Calm   14.5 km/h 60 % 0 mm
11:51 27.5 °C 19.6 °C 1014.4 hPa SSE 3.2 km/h 14.5 km/h 62 % 0 mm
11:56 27.4 °C 19.5 °C 1014.4 hPa SE 3.2 km/h 14.5 km/h 62 % 0 mm
12:01 27.4 °C 19.5 °C 1014.4 hPa SE 8 km/h 14.5 km/h 62 % 0 mm
12:06 27.8 °C 19.8 °C 1014.4 hPa South 8 km/h 14.5 km/h 62 % 0 mm
12:11 28.5 °C 20.2 °C 1014.4 hPa South 8 km/h 14.5 km/h 61 % 0 mm
12:16 28.8 °C 19.7 °C 1014.4 hPa SE 6.4 km/h 12.9 km/h 58 % 0 mm
12:20 28.8 °C 19.4 °C 1014.4 hPa ESE 3.2 km/h 12.9 km/h 57 % 0 mm
12:25 28.7 °C 19.6 °C 1014.4 hPa SSE 4.8 km/h 12.9 km/h 58 % 0 mm
12:30 28.9 °C 19.8 °C 1014.4 hPa SSW 1.6 km/h 16.1 km/h 58 % 0 mm
12:35 29.4 °C 19.7 °C 1014.4 hPa SSW 3.2 km/h 16.1 km/h 56 % 0 mm
12:40 29.2 °C 19.2 °C 1014.1 hPa SE 1.6 km/h 16.1 km/h 55 % 0 mm
12:45 28.9 °C 19.5 °C 1014.1 hPa Calm   14.5 km/h 57 % 0 mm
12:50 28.8 °C 19.1 °C 1014.1 hPa ENE 8 km/h 11.3 km/h 56 % 0 mm
12:55 28.7 °C 19.3 °C 1014.1 hPa ESE 4.8 km/h 14.5 km/h 57 % 0 mm
13:00 29.3 °C 19 °C 1014.1 hPa SE 11.3 km/h 14.5 km/h 54 % 0 mm
13:05 29.9 °C 19.9 °C 1014.1 hPa East 1.6 km/h 14.5 km/h 55 % 0 mm
13:10 30.7 °C 19.4 °C 1014.1 hPa SE 9.7 km/h 12.9 km/h 51 % 0 mm
13:15 30.7 °C 19.4 °C 1014.1 hPa East 6.4 km/h 12.9 km/h 51 % 0 mm
13:20 30.4 °C 19.1 °C 1013.8 hPa ESE 6.4 km/h 11.3 km/h 51 % 0 mm
13:25 30.2 °C 18.9 °C 1013.8 hPa ESE 9.7 km/h 14.5 km/h 51 % 0 mm
13:30 30.1 °C 19.2 °C 1013.8 hPa ENE 8 km/h 14.5 km/h 52 % 0 mm
13:35 29.8 °C 18.9 °C 1013.8 hPa ESE 4.8 km/h 14.5 km/h 52 % 0 mm
13:40 29.8 °C 19.2 °C 1013.8 hPa SE 4.8 km/h 14.5 km/h 53 % 0 mm
13:45 30 °C 19.4 °C 1013.8 hPa NE 4.8 km/h 14.5 km/h 53 % 0 mm
13:50 30.1 °C 19.2 °C 1013.8 hPa SSE 1.6 km/h 12.9 km/h 52 % 0 mm
13:55 30.1 °C 18.8 °C 1013.4 hPa East 1.6 km/h 12.9 km/h 51 % 0 mm
14:00 29.6 °C 18.7 °C 1013.4 hPa South 12.9 km/h 12.9 km/h 52 % 0 mm
14:05 29.2 °C 18.6 °C 1013.4 hPa ENE 6.4 km/h 16.1 km/h 53 % 0 mm
14:10 29.2 °C 18.6 °C 1013.4 hPa SE 9.7 km/h 16.1 km/h 53 % 0 mm
14:15 29.3 °C 19 °C 1013.4 hPa East 1.6 km/h 16.1 km/h 54 % 0 mm
14:20 29.4 °C 19.4 °C 1013.4 hPa SSE 4.8 km/h 14.5 km/h 55 % 0 mm
14:25 29.9 °C 19 °C 1013.1 hPa SSE 8 km/h 14.5 km/h 52 % 0 mm
14:30 30.6 °C 19 °C 1013.1 hPa ESE 9.7 km/h 14.5 km/h 50 % 0 mm
14:35 30.9 °C 18.6 °C 1013.1 hPa East 8 km/h 16.1 km/h 48 % 0 mm
14:40 30.6 °C 19 °C 1012.8 hPa East 6.4 km/h 16.1 km/h 50 % 0 mm
14:45 31 °C 18.7 °C 1012.8 hPa East 3.2 km/h 16.1 km/h 48 % 0 mm
14:50 31.1 °C 18.8 °C 1012.8 hPa NNE 4.8 km/h 11.3 km/h 48 % 0 mm
14:55 31.1 °C 18.8 °C 1012.8 hPa SSE 3.2 km/h 20.9 km/h 48 % 0 mm
15:00 31.3 °C 18.6 °C 1012.8 hPa East 8 km/h 20.9 km/h 47 % 0 mm
15:05 31.6 °C 18.9 °C 1012.8 hPa East 3.2 km/h 20.9 km/h 47 % 0 mm
15:10 31.5 °C 18.8 °C 1012.8 hPa SE 8 km/h 11.3 km/h 47 % 0 mm
15:15 31.2 °C 18.2 °C 1012.8 hPa ESE 3.2 km/h 17.7 km/h 46 % 0 mm
15:20 30.9 °C 18.3 °C 1012.8 hPa SSE 4.8 km/h 17.7 km/h 47 % 0 mm
15:25 30.9 °C 18.9 °C 1012.4 hPa SSE 6.4 km/h 17.7 km/h 49 % 0 mm
15:30 31.3 °C 19 °C 1012.4 hPa ENE 4.8 km/h 16.1 km/h 48 % 0 mm
15:35 31.3 °C 18.3 °C 1012.4 hPa SSE 3.2 km/h 12.9 km/h 46 % 0 mm
15:40 31.5 °C 18.1 °C 1012.4 hPa SSW 4.8 km/h 9.7 km/h 45 % 0 mm
15:45 31.3 °C 18.6 °C 1012.1 hPa NE 3.2 km/h 9.7 km/h 47 % 0 mm
15:50 31.1 °C 18.8 °C 1012.1 hPa ESE 6.4 km/h 8 km/h 48 % 0 mm
15:56 30.4 °C 18.5 °C 1012.1 hPa East 3.2 km/h 12.9 km/h 49 % 0 mm
16:01 30.2 °C 18.6 °C 1012.1 hPa East 6.4 km/h 12.9 km/h 50 % 0 mm
16:06 30.7 °C 19.1 °C 1012.1 hPa East 3.2 km/h 12.9 km/h 50 % 0 mm
16:11 31.2 °C 19.5 °C 1012.1 hPa Calm   14.5 km/h 50 % 0 mm
16:16 31.5 °C 19.5 °C 1012.1 hPa SSE 1.6 km/h 14.5 km/h 49 % 0 mm
16:21 31.4 °C 18.7 °C 1011.7 hPa East 3.2 km/h 14.5 km/h 47 % 0 mm
16:26 31.6 °C 19.2 °C 1011.7 hPa NNE 11.3 km/h 11.3 km/h 48 % 0 mm
16:31 31.1 °C 18.5 °C 1011.7 hPa ESE 4.8 km/h 11.3 km/h 47 % 0 mm
16:36 30.9 °C 18.9 °C 1011.7 hPa SSE 6.4 km/h 11.3 km/h 49 % 0 mm
16:41 31.3 °C 18.6 °C 1011.7 hPa South 4.8 km/h 12.9 km/h 47 % 0 mm
16:46 31.2 °C 18.5 °C 1011.7 hPa ESE 6.4 km/h 12.9 km/h 47 % 0 mm
16:51 31.3 °C 18.6 °C 1011.7 hPa SSE 3.2 km/h 12.9 km/h 47 % 0 mm
16:56 31.4 °C 18.4 °C 1011.7 hPa ESE 8 km/h 12.9 km/h 46 % 0 mm
17:01 31.3 °C 19.3 °C 1011.7 hPa South 8 km/h 14.5 km/h 49 % 0 mm
17:06 31 °C 19 °C 1011.7 hPa SSW 6.4 km/h 16.1 km/h 49 % 0 mm
17:11 31 °C 19.4 °C 1011.7 hPa ENE 3.2 km/h 16.1 km/h 50 % 0 mm
17:16 30.8 °C 18.8 °C 1011.7 hPa SSE 6.4 km/h 16.1 km/h 49 % 0 mm
17:21 31 °C 19.4 °C 1011.4 hPa East 6.4 km/h 12.9 km/h 50 % 0 mm
17:26 30.9 °C 19.3 °C 1011.4 hPa South 4.8 km/h 12.9 km/h 50 % 0 mm
17:31 30.8 °C 19.2 °C 1011.4 hPa SSE 8 km/h 14.5 km/h 50 % 0 mm
17:36 30.7 °C 19.1 °C 1011.4 hPa SSE 6.4 km/h 14.5 km/h 50 % 0 mm
17:41 30.7 °C 19.7 °C 1011.4 hPa SE 3.2 km/h 19.3 km/h 52 % 0 mm
17:46 30.7 °C 19.7 °C 1011.4 hPa SSW 3.2 km/h 19.3 km/h 52 % 0 mm
17:51 30.5 °C 19.5 °C 1011.4 hPa ESE 9.7 km/h 19.3 km/h 52 % 0 mm
17:56 30.4 °C 19.7 °C 1011.4 hPa NNW 1.6 km/h 12.9 km/h 53 % 0 mm
18:01 30.2 °C 19.3 °C 1011.4 hPa North 4.8 km/h 12.9 km/h 52 % 0 mm
18:07 30.2 °C 19.6 °C 1011.1 hPa East 4.8 km/h 14.5 km/h 53 % 0 mm
18:11 30.1 °C 19.5 °C 1011.1 hPa SSE 3.2 km/h 14.5 km/h 53 % 0 mm
18:16 30.2 °C 19.6 °C 1011.1 hPa ESE 4.8 km/h 14.5 km/h 53 % 0 mm
18:21 30.2 °C 19.6 °C 1011.1 hPa ENE 3.2 km/h 14.5 km/h 53 % 0 mm
18:26 30 °C 19.7 °C 1011.1 hPa SSE 3.2 km/h 14.5 km/h 54 % 0 mm
18:31 29.8 °C 19.5 °C 1011.1 hPa SE 3.2 km/h 11.3 km/h 54 % 0 mm
18:32 29.8 °C 19.5 °C 1011.1 hPa ENE 6.4 km/h 11.3 km/h 54 % 0 mm
18:37 29.8 °C 19.5 °C 1011.1 hPa SE 12.9 km/h 12.9 km/h 54 % 0 mm
18:42 29.7 °C 19.7 °C 1011.1 hPa Calm   12.9 km/h 55 % 0 mm
18:47 29.7 °C 19.7 °C 1011.1 hPa South 9.7 km/h 12.9 km/h 55 % 0 mm
18:52 29.5 °C 19.5 °C 1011.1 hPa SE 6.4 km/h 12.9 km/h 55 % 0 mm
18:57 29.3 °C 19.6 °C 1011.1 hPa ENE 6.4 km/h 12.9 km/h 56 % 0 mm
19:02 29.2 °C 19.8 °C 1011.1 hPa ESE 8 km/h 14.5 km/h 57 % 0 mm
19:07 29 °C 19.6 °C 1011.1 hPa ESE 6.4 km/h 14.5 km/h 57 % 0 mm
19:12 28.7 °C 19.3 °C 1011.1 hPa SE 9.7 km/h 17.7 km/h 57 % 0 mm
19:17 28.4 °C 19.3 °C 1011.1 hPa ESE 8 km/h 17.7 km/h 58 % 0 mm
19:22 28.2 °C 19.4 °C 1011.1 hPa SE 8 km/h 19.3 km/h 59 % 0 mm
19:27 28 °C 19.5 °C 1011.1 hPa South 6.4 km/h 19.3 km/h 60 % 0 mm
19:31 27.9 °C 19.4 °C 1011.1 hPa SSE 1.6 km/h 19.3 km/h 60 % 0 mm
19:36 27.8 °C 19.3 °C 1011.1 hPa SE 6.4 km/h 14.5 km/h 60 % 0 mm
19:41 27.7 °C 19.2 °C 1011.1 hPa SE 4.8 km/h 11.3 km/h 60 % 0 mm
19:46 27.6 °C 19.4 °C 1011.1 hPa SSE 6.4 km/h 14.5 km/h 61 % 0 mm
19:51 27.5 °C 19.3 °C 1011.1 hPa SE 4.8 km/h 14.5 km/h 61 % 0 mm
19:56 27.3 °C 19.1 °C 1011.4 hPa SE 4.8 km/h 14.5 km/h 61 % 0 mm
20:01 27.2 °C 19.3 °C 1011.4 hPa SSW 8 km/h 14.5 km/h 62 % 0 mm
20:06 27.1 °C 19.2 °C 1011.4 hPa SE 4.8 km/h 14.5 km/h 62 % 0 mm
20:11 26.9 °C 19.3 °C 1011.4 hPa ESE 8 km/h 14.5 km/h 63 % 0 mm
20:16 26.8 °C 19.2 °C 1011.4 hPa SE 6.4 km/h 12.9 km/h 63 % 0 mm
20:21 26.6 °C 19.2 °C 1011.4 hPa SSE 1.6 km/h 12.9 km/h 64 % 0 mm
20:26 26.5 °C 19.1 °C 1011.4 hPa SE 4.8 km/h 12.9 km/h 64 % 0 mm
20:31 26.3 °C 19.2 °C 1011.4 hPa SE 1.6 km/h 12.9 km/h 65 % 0 mm
20:36 26.2 °C 19.1 °C 1011.4 hPa ESE 4.8 km/h 11.3 km/h 65 % 0 mm
20:41 26.1 °C 19.2 °C 1011.4 hPa NE 4.8 km/h 12.9 km/h 66 % 0 mm
20:46 26.1 °C 19.2 °C 1011.4 hPa East 8 km/h 12.9 km/h 66 % 0 mm
20:51 25.9 °C 19.1 °C 1011.4 hPa SE 4.8 km/h 12.9 km/h 66 % 0 mm
20:56 25.8 °C 19.2 °C 1011.7 hPa SE 3.2 km/h 11.3 km/h 67 % 0 mm
21:01 25.7 °C 19.3 °C 1011.7 hPa SE 8 km/h 11.3 km/h 68 % 0 mm
21:06 25.6 °C 19.3 °C 1011.7 hPa SE 3.2 km/h 11.3 km/h 68 % 0 mm
21:11 25.6 °C 19.3 °C 1011.7 hPa SE 4.8 km/h 9.7 km/h 68 % 0 mm
21:16 25.5 °C 19.4 °C 1011.7 hPa ESE 6.4 km/h 9.7 km/h 69 % 0 mm
21:21 25.4 °C 19.3 °C 1012.1 hPa SE 3.2 km/h 8 km/h 69 % 0 mm
21:26 25.3 °C 19.2 °C 1012.1 hPa ESE 3.2 km/h 8 km/h 69 % 0 mm
21:31 25.2 °C 19.3 °C 1012.4 hPa ESE 3.2 km/h 8 km/h 70 % 0 mm
21:36 25.1 °C 19.2 °C 1012.4 hPa SE 3.2 km/h 6.4 km/h 70 % 0 mm
21:41 25.1 °C 19.5 °C 1012.4 hPa SSE 6.4 km/h 11.3 km/h 71 % 0 mm
21:46 25.1 °C 19.5 °C 1012.8 hPa SSE 4.8 km/h 12.9 km/h 71 % 0 mm
21:51 25 °C 19.6 °C 1012.8 hPa SSE 3.2 km/h 12.9 km/h 72 % 0 mm
21:56 24.9 °C 19.5 °C 1012.8 hPa SE 4.8 km/h 12.9 km/h 72 % 0 mm
22:01 24.8 °C 19.6 °C 1012.8 hPa ESE 3.2 km/h 11.3 km/h 73 % 0 mm
22:06 24.7 °C 19.5 °C 1012.8 hPa South 3.2 km/h 11.3 km/h 73 % 0 mm
22:11 24.7 °C 19.8 °C 1012.8 hPa SSE 9.7 km/h 11.3 km/h 74 % 0 mm
22:16 24.6 °C 19.7 °C 1013.1 hPa SSE 9.7 km/h 11.3 km/h 74 % 0 mm
22:21 24.6 °C 19.7 °C 1013.1 hPa SSW 6.4 km/h 14.5 km/h 74 % 0 mm
22:26 24.4 °C 19.5 °C 1013.1 hPa SE 4.8 km/h 14.5 km/h 74 % 0 mm
22:31 24.3 °C 19.6 °C 1013.1 hPa SE 4.8 km/h 14.5 km/h 75 % 0 mm
22:36 24.2 °C 19.7 °C 1013.1 hPa ESE 3.2 km/h 11.3 km/h 76 % 0 mm
22:41 24.1 °C 19.6 °C 1013.4 hPa South 3.2 km/h 11.3 km/h 76 % 0 mm
22:46 23.9 °C 19.6 °C 1013.4 hPa SE 6.4 km/h 8 km/h 77 % 0 mm
22:51 23.8 °C 19.5 °C 1013.4 hPa SSE 1.6 km/h 9.7 km/h 77 % 0 mm
22:56 23.7 °C 19.4 °C 1013.4 hPa SE 4.8 km/h 14.5 km/h 77 % 0 mm
23:01 23.7 °C 19.4 °C 1013.4 hPa SSE 3.2 km/h 14.5 km/h 77 % 0 mm
23:06 23.6 °C 19.3 °C 1013.4 hPa SSE 4.8 km/h 14.5 km/h 77 % 0 mm
23:11 23.4 °C 19.1 °C 1013.4 hPa SE 3.2 km/h 12.9 km/h 77 % 0 mm
23:13 23.4 °C 19.1 °C 1013.4 hPa SSW 4.8 km/h 12.9 km/h 77 % 0 mm
23:18 23.4 °C 19.1 °C 1013.4 hPa South 6.4 km/h 12.9 km/h 77 % 0 mm
23:23 23.3 °C 19.2 °C 1013.4 hPa SSE 4.8 km/h 12.9 km/h 78 % 0 mm
23:28 23.2 °C 19.1 °C 1013.4 hPa SE 4.8 km/h 11.3 km/h 78 % 0 mm
23:30 23.2 °C 19.4 °C 1013.4 hPa SE 4.8 km/h 9.7 km/h 79 % 0 mm
23:35 23.1 °C 19.3 °C 1013.8 hPa ESE 4.8 km/h 9.7 km/h 79 % 0 mm
23:40 23.1 °C 19.3 °C 1013.8 hPa SSW 4.8 km/h 9.7 km/h 79 % 0 mm
23:45 22.9 °C 19.3 °C 1013.8 hPa SSW 3.2 km/h 9.7 km/h 80 % 0 mm
23:50 22.8 °C 19.2 °C 1013.8 hPa SSW 1.6 km/h 9.7 km/h 80 % 0 mm
23:55 22.7 °C 19.3 °C 1013.8 hPa South 3.2 km/h 9.7 km/h 81 % 0 mm
Spring, Texas: Villages of Bridgestone
Compliments of Weather Underground - 2.75 mb

Script developed by  Jim McMurry - jmcmurry@mwt.net Adapted for the template by  Wim van der Kuil - Leuven-Template.eu

You find our weather info also at:

UK Metoffice

WeatherCloud

Weather Underground

Mid-South Weather Network

AWEKAS

Citizen Weather Observer Program (CWOP)

HAMweather, WeatherForYou, PWS Weather

Equipment we use:

Weather-station
Davis Vantage Vue

Weather-program
Meteohub

Weather-server
Debian 7.9 x86 (Guest)

Provider
DreamHost

Davis Vantage Vue

Meteohub

Debian 7.9 x86 (Guest)

DreamHost